sensor_id;sensor_type;location;lat;lon;timestamp;P1;durP1;ratioP1;P2;durP2;ratioP2
69172;SDS011;56280;49.662;8.408;2023-04-23T00:00:59;9.55;;;5.68;;
69172;SDS011;56280;49.662;8.408;2023-04-23T00:03:28;7.38;;;5.57;;
69172;SDS011;56280;49.662;8.408;2023-04-23T00:05:57;8.05;;;5.47;;
69172;SDS011;56280;49.662;8.408;2023-04-23T00:08:23;8.20;;;5.13;;
69172;SDS011;56280;49.662;8.408;2023-04-23T00:10:48;7.77;;;5.33;;
69172;SDS011;56280;49.662;8.408;2023-04-23T00:13:14;8.17;;;5.23;;
69172;SDS011;56280;49.662;8.408;2023-04-23T00:15:40;8.45;;;6.05;;
69172;SDS011;56280;49.662;8.408;2023-04-23T00:18:05;8.30;;;5.70;;
69172;SDS011;56280;49.662;8.408;2023-04-23T00:20:30;8.50;;;6.20;;
69172;SDS011;56280;49.662;8.408;2023-04-23T00:22:56;8.30;;;5.87;;
69172;SDS011;56280;49.662;8.408;2023-04-23T00:25:21;9.37;;;6.37;;
69172;SDS011;56280;49.662;8.408;2023-04-23T00:27:46;7.73;;;5.80;;
69172;SDS011;56280;49.662;8.408;2023-04-23T00:30:12;9.83;;;6.20;;
69172;SDS011;56280;49.662;8.408;2023-04-23T00:32:38;9.65;;;6.22;;
69172;SDS011;56280;49.662;8.408;2023-04-23T00:35:03;9.40;;;6.80;;
69172;SDS011;56280;49.662;8.408;2023-04-23T00:37:29;8.67;;;6.77;;
69172;SDS011;56280;49.662;8.408;2023-04-23T00:39:55;8.63;;;6.72;;
69172;SDS011;56280;49.662;8.408;2023-04-23T00:42:20;8.90;;;6.70;;
69172;SDS011;56280;49.662;8.408;2023-04-23T00:44:45;9.23;;;6.53;;
69172;SDS011;56280;49.662;8.408;2023-04-23T00:47:10;8.60;;;6.53;;
69172;SDS011;56280;49.662;8.408;2023-04-23T00:49:36;8.75;;;6.43;;
69172;SDS011;56280;49.662;8.408;2023-04-23T00:52:03;8.55;;;6.88;;
69172;SDS011;56280;49.662;8.408;2023-04-23T00:54:28;9.33;;;6.80;;
69172;SDS011;56280;49.662;8.408;2023-04-23T00:56:54;9.77;;;6.90;;
69172;SDS011;56280;49.662;8.408;2023-04-23T00:59:21;9.25;;;6.70;;
69172;SDS011;56280;49.662;8.408;2023-04-23T01:01:48;9.35;;;7.20;;
69172;SDS011;56280;49.662;8.408;2023-04-23T01:04:16;9.43;;;7.10;;
69172;SDS011;56280;49.662;8.408;2023-04-23T01:06:43;7.88;;;6.40;;
69172;SDS011;56280;49.662;8.408;2023-04-23T01:09:11;9.10;;;6.20;;
69172;SDS011;56280;49.662;8.408;2023-04-23T01:11:37;8.65;;;6.90;;
69172;SDS011;56280;49.662;8.408;2023-04-23T01:14:04;9.15;;;7.25;;
69172;SDS011;56280;49.662;8.408;2023-04-23T01:16:29;9.33;;;7.10;;
69172;SDS011;56280;49.662;8.408;2023-04-23T01:18:55;10.03;;;6.93;;
69172;SDS011;56280;49.662;8.408;2023-04-23T01:21:21;9.53;;;7.40;;
69172;SDS011;56280;49.662;8.408;2023-04-23T01:23:47;10.07;;;7.43;;
69172;SDS011;56280;49.662;8.408;2023-04-23T01:26:13;9.70;;;7.00;;
69172;SDS011;56280;49.662;8.408;2023-04-23T01:28:39;9.43;;;6.88;;
69172;SDS011;56280;49.662;8.408;2023-04-23T01:31:05;9.35;;;6.55;;
69172;SDS011;56280;49.662;8.408;2023-04-23T01:33:31;9.70;;;6.60;;
69172;SDS011;56280;49.662;8.408;2023-04-23T01:35:57;7.95;;;6.10;;
69172;SDS011;56280;49.662;8.408;2023-04-23T01:38:22;8.20;;;6.30;;
69172;SDS011;56280;49.662;8.408;2023-04-23T01:40:49;8.13;;;6.47;;
69172;SDS011;56280;49.662;8.408;2023-04-23T01:43:14;8.33;;;6.40;;
69172;SDS011;56280;49.662;8.408;2023-04-23T01:45:40;9.10;;;6.50;;
69172;SDS011;56280;49.662;8.408;2023-04-23T01:48:05;8.15;;;6.13;;
69172;SDS011;56280;49.662;8.408;2023-04-23T01:50:30;7.90;;;6.07;;
69172;SDS011;56280;49.662;8.408;2023-04-23T01:52:56;8.60;;;6.60;;
69172;SDS011;56280;49.662;8.408;2023-04-23T01:55:21;9.37;;;6.90;;
69172;SDS011;56280;49.662;8.408;2023-04-23T01:57:47;7.90;;;6.67;;
69172;SDS011;56280;49.662;8.408;2023-04-23T02:00:13;8.88;;;6.80;;
69172;SDS011;56280;49.662;8.408;2023-04-23T02:02:40;9.07;;;6.32;;
69172;SDS011;56280;49.662;8.408;2023-04-23T02:05:14;8.40;;;6.30;;
69172;SDS011;56280;49.662;8.408;2023-04-23T02:07:41;8.18;;;6.25;;
69172;SDS011;56280;49.662;8.408;2023-04-23T02:10:07;7.18;;;5.90;;
69172;SDS011;56280;49.662;8.408;2023-04-23T02:12:34;7.30;;;5.25;;
69172;SDS011;56280;49.662;8.408;2023-04-23T02:15:00;6.55;;;5.22;;
69172;SDS011;56280;49.662;8.408;2023-04-23T02:17:26;6.70;;;5.67;;
69172;SDS011;56280;49.662;8.408;2023-04-23T02:19:53;7.15;;;5.55;;
69172;SDS011;56280;49.662;8.408;2023-04-23T02:22:19;6.43;;;5.63;;
69172;SDS011;56280;49.662;8.408;2023-04-23T02:24:46;7.20;;;5.45;;
69172;SDS011;56280;49.662;8.408;2023-04-23T02:27:12;7.20;;;5.55;;
69172;SDS011;56280;49.662;8.408;2023-04-23T02:29:37;7.13;;;5.50;;
69172;SDS011;56280;49.662;8.408;2023-04-23T02:32:04;7.57;;;5.70;;
69172;SDS011;56280;49.662;8.408;2023-04-23T02:34:29;6.57;;;5.87;;
69172;SDS011;56280;49.662;8.408;2023-04-23T02:36:54;8.23;;;6.00;;
69172;SDS011;56280;49.662;8.408;2023-04-23T02:39:19;7.40;;;5.83;;
69172;SDS011;56280;49.662;8.408;2023-04-23T02:41:45;8.10;;;5.67;;
69172;SDS011;56280;49.662;8.408;2023-04-23T02:44:10;7.60;;;5.90;;
69172;SDS011;56280;49.662;8.408;2023-04-23T02:46:35;7.60;;;5.80;;
69172;SDS011;56280;49.662;8.408;2023-04-23T02:49:01;7.40;;;5.80;;
69172;SDS011;56280;49.662;8.408;2023-04-23T02:51:27;7.90;;;5.97;;
69172;SDS011;56280;49.662;8.408;2023-04-23T02:53:53;7.30;;;6.00;;
69172;SDS011;56280;49.662;8.408;2023-04-23T02:56:18;7.90;;;6.20;;
69172;SDS011;56280;49.662;8.408;2023-04-23T02:58:44;7.63;;;6.10;;
69172;SDS011;56280;49.662;8.408;2023-04-23T03:01:09;7.53;;;6.23;;
69172;SDS011;56280;49.662;8.408;2023-04-23T03:03:35;8.50;;;5.90;;
69172;SDS011;56280;49.662;8.408;2023-04-23T03:06:00;8.53;;;6.10;;
69172;SDS011;56280;49.662;8.408;2023-04-23T03:08:26;7.60;;;6.03;;
69172;SDS011;56280;49.662;8.408;2023-04-23T03:10:52;7.32;;;6.03;;
69172;SDS011;56280;49.662;8.408;2023-04-23T03:13:17;7.20;;;5.80;;
69172;SDS011;56280;49.662;8.408;2023-04-23T03:15:42;7.60;;;5.57;;
69172;SDS011;56280;49.662;8.408;2023-04-23T03:18:08;7.85;;;5.70;;
69172;SDS011;56280;49.662;8.408;2023-04-23T03:20:34;7.70;;;5.78;;
69172;SDS011;56280;49.662;8.408;2023-04-23T03:23:00;7.18;;;5.78;;
69172;SDS011;56280;49.662;8.408;2023-04-23T03:25:25;6.80;;;5.53;;
69172;SDS011;56280;49.662;8.408;2023-04-23T03:27:51;7.73;;;5.97;;
69172;SDS011;56280;49.662;8.408;2023-04-23T03:30:17;8.45;;;6.40;;
69172;SDS011;56280;49.662;8.408;2023-04-23T03:32:43;8.48;;;6.30;;
69172;SDS011;56280;49.662;8.408;2023-04-23T03:35:08;6.80;;;5.80;;
69172;SDS011;56280;49.662;8.408;2023-04-23T03:37:33;6.97;;;5.87;;
69172;SDS011;56280;49.662;8.408;2023-04-23T03:39:59;8.15;;;5.90;;
69172;SDS011;56280;49.662;8.408;2023-04-23T03:42:27;8.97;;;6.10;;
69172;SDS011;56280;49.662;8.408;2023-04-23T03:44:53;8.48;;;5.88;;
69172;SDS011;56280;49.662;8.408;2023-04-23T03:47:18;7.37;;;6.33;;
69172;SDS011;56280;49.662;8.408;2023-04-23T03:49:43;7.07;;;6.10;;
69172;SDS011;56280;49.662;8.408;2023-04-23T03:52:09;7.10;;;6.03;;
69172;SDS011;56280;49.662;8.408;2023-04-23T03:54:34;9.77;;;6.87;;
69172;SDS011;56280;49.662;8.408;2023-04-23T03:56:59;7.77;;;6.17;;
69172;SDS011;56280;49.662;8.408;2023-04-23T03:59:25;6.67;;;5.67;;
69172;SDS011;56280;49.662;8.408;2023-04-23T04:01:51;8.40;;;6.27;;
69172;SDS011;56280;49.662;8.408;2023-04-23T04:04:16;7.90;;;6.20;;
69172;SDS011;56280;49.662;8.408;2023-04-23T04:06:41;7.77;;;6.70;;
69172;SDS011;56280;49.662;8.408;2023-04-23T04:09:07;8.17;;;6.23;;
69172;SDS011;56280;49.662;8.408;2023-04-23T04:11:32;7.22;;;6.13;;
69172;SDS011;56280;49.662;8.408;2023-04-23T04:13:58;7.47;;;5.70;;
69172;SDS011;56280;49.662;8.408;2023-04-23T04:16:23;7.13;;;5.50;;
69172;SDS011;56280;49.662;8.408;2023-04-23T04:18:49;7.33;;;5.90;;
69172;SDS011;56280;49.662;8.408;2023-04-23T04:21:14;7.90;;;5.57;;
69172;SDS011;56280;49.662;8.408;2023-04-23T04:23:41;7.22;;;5.82;;
69172;SDS011;56280;49.662;8.408;2023-04-23T04:26:06;7.17;;;5.50;;
69172;SDS011;56280;49.662;8.408;2023-04-23T04:28:32;7.30;;;5.55;;
69172;SDS011;56280;49.662;8.408;2023-04-23T04:31:00;6.80;;;5.70;;
69172;SDS011;56280;49.662;8.408;2023-04-23T04:33:26;7.65;;;5.70;;
69172;SDS011;56280;49.662;8.408;2023-04-23T04:35:53;6.93;;;5.53;;
69172;SDS011;56280;49.662;8.408;2023-04-23T04:38:19;7.13;;;5.55;;
69172;SDS011;56280;49.662;8.408;2023-04-23T04:40:45;8.37;;;5.40;;
69172;SDS011;56280;49.662;8.408;2023-04-23T04:43:12;6.95;;;5.30;;
69172;SDS011;56280;49.662;8.408;2023-04-23T04:45:37;7.70;;;5.60;;
69172;SDS011;56280;49.662;8.408;2023-04-23T04:48:03;7.30;;;5.50;;
69172;SDS011;56280;49.662;8.408;2023-04-23T04:50:28;7.97;;;5.20;;
69172;SDS011;56280;49.662;8.408;2023-04-23T04:52:54;7.03;;;5.40;;
69172;SDS011;56280;49.662;8.408;2023-04-23T04:55:19;8.57;;;6.00;;
69172;SDS011;56280;49.662;8.408;2023-04-23T04:57:44;8.43;;;6.43;;
69172;SDS011;56280;49.662;8.408;2023-04-23T05:02:46;8.27;;;6.18;;
69172;SDS011;56280;49.662;8.408;2023-04-23T05:05:12;8.63;;;6.13;;
69172;SDS011;56280;49.662;8.408;2023-04-23T05:07:38;8.17;;;5.97;;
69172;SDS011;56280;49.662;8.408;2023-04-23T05:10:03;7.40;;;5.90;;
69172;SDS011;56280;49.662;8.408;2023-04-23T05:12:28;7.30;;;5.60;;
69172;SDS011;56280;49.662;8.408;2023-04-23T05:14:54;7.13;;;5.50;;
69172;SDS011;56280;49.662;8.408;2023-04-23T05:17:19;8.07;;;5.47;;
69172;SDS011;56280;49.662;8.408;2023-04-23T05:19:44;9.50;;;5.43;;
69172;SDS011;56280;49.662;8.408;2023-04-23T05:22:09;6.83;;;5.47;;
69172;SDS011;56280;49.662;8.408;2023-04-23T05:24:35;6.77;;;5.47;;
69172;SDS011;56280;49.662;8.408;2023-04-23T05:27:00;6.18;;;5.10;;
69172;SDS011;56280;49.662;8.408;2023-04-23T05:29:26;6.97;;;4.77;;
69172;SDS011;56280;49.662;8.408;2023-04-23T05:31:51;5.77;;;4.73;;
69172;SDS011;56280;49.662;8.408;2023-04-23T05:34:17;5.70;;;4.83;;
69172;SDS011;56280;49.662;8.408;2023-04-23T05:36:42;6.63;;;5.00;;
69172;SDS011;56280;49.662;8.408;2023-04-23T05:39:07;6.20;;;4.90;;
69172;SDS011;56280;49.662;8.408;2023-04-23T05:41:33;7.50;;;4.90;;
69172;SDS011;56280;49.662;8.408;2023-04-23T05:43:58;6.77;;;4.67;;
69172;SDS011;56280;49.662;8.408;2023-04-23T05:46:23;6.70;;;4.77;;
69172;SDS011;56280;49.662;8.408;2023-04-23T05:48:49;6.63;;;4.43;;
69172;SDS011;56280;49.662;8.408;2023-04-23T05:51:14;5.97;;;4.47;;
69172;SDS011;56280;49.662;8.408;2023-04-23T05:53:39;5.77;;;4.27;;
69172;SDS011;56280;49.662;8.408;2023-04-23T05:56:04;5.83;;;4.50;;
69172;SDS011;56280;49.662;8.408;2023-04-23T05:58:30;5.43;;;4.60;;
69172;SDS011;56280;49.662;8.408;2023-04-23T06:00:55;5.43;;;4.43;;
69172;SDS011;56280;49.662;8.408;2023-04-23T06:03:21;5.65;;;4.38;;
69172;SDS011;56280;49.662;8.408;2023-04-23T06:05:46;5.10;;;4.07;;
69172;SDS011;56280;49.662;8.408;2023-04-23T06:08:12;5.70;;;4.35;;
69172;SDS011;56280;49.662;8.408;2023-04-23T06:10:40;5.90;;;4.07;;
69172;SDS011;56280;49.662;8.408;2023-04-23T06:13:06;5.85;;;4.20;;
69172;SDS011;56280;49.662;8.408;2023-04-23T06:15:31;5.57;;;4.05;;
69172;SDS011;56280;49.662;8.408;2023-04-23T06:17:56;5.07;;;4.30;;
69172;SDS011;56280;49.662;8.408;2023-04-23T06:20:21;5.13;;;4.10;;
69172;SDS011;56280;49.662;8.408;2023-04-23T06:22:47;5.63;;;3.90;;
69172;SDS011;56280;49.662;8.408;2023-04-23T06:25:12;5.70;;;4.10;;
69172;SDS011;56280;49.662;8.408;2023-04-23T06:27:37;5.80;;;3.90;;
69172;SDS011;56280;49.662;8.408;2023-04-23T06:30:03;5.27;;;3.60;;
69172;SDS011;56280;49.662;8.408;2023-04-23T06:32:28;5.13;;;4.00;;
69172;SDS011;56280;49.662;8.408;2023-04-23T06:34:54;5.40;;;3.40;;
69172;SDS011;56280;49.662;8.408;2023-04-23T06:37:19;4.97;;;3.40;;
69172;SDS011;56280;49.662;8.408;2023-04-23T06:39:44;4.90;;;3.53;;
69172;SDS011;56280;49.662;8.408;2023-04-23T06:42:10;5.40;;;3.53;;
69172;SDS011;56280;49.662;8.408;2023-04-23T06:44:35;5.23;;;3.60;;
69172;SDS011;56280;49.662;8.408;2023-04-23T06:47:00;4.43;;;3.33;;
69172;SDS011;56280;49.662;8.408;2023-04-23T06:49:26;4.60;;;3.50;;
69172;SDS011;56280;49.662;8.408;2023-04-23T06:51:51;4.77;;;3.43;;
69172;SDS011;56280;49.662;8.408;2023-04-23T06:54:16;4.60;;;3.40;;
69172;SDS011;56280;49.662;8.408;2023-04-23T06:56:42;5.13;;;3.23;;
69172;SDS011;56280;49.662;8.408;2023-04-23T06:59:07;4.57;;;3.00;;
69172;SDS011;56280;49.662;8.408;2023-04-23T07:01:33;4.10;;;2.80;;
69172;SDS011;56280;49.662;8.408;2023-04-23T07:03:59;5.50;;;3.05;;
69172;SDS011;56280;49.662;8.408;2023-04-23T07:06:25;4.13;;;2.90;;
69172;SDS011;56280;49.662;8.408;2023-04-23T07:08:51;4.65;;;3.17;;
69172;SDS011;56280;49.662;8.408;2023-04-23T07:11:17;4.10;;;2.90;;
69172;SDS011;56280;49.662;8.408;2023-04-23T07:13:42;5.07;;;3.10;;
69172;SDS011;56280;49.662;8.408;2023-04-23T07:16:07;5.10;;;3.30;;
69172;SDS011;56280;49.662;8.408;2023-04-23T07:18:33;5.50;;;4.40;;
69172;SDS011;56280;49.662;8.408;2023-04-23T07:20:58;4.90;;;3.80;;
69172;SDS011;56280;49.662;8.408;2023-04-23T07:23:23;4.60;;;3.40;;
69172;SDS011;56280;49.662;8.408;2023-04-23T07:25:48;4.60;;;3.10;;
69172;SDS011;56280;49.662;8.408;2023-04-23T07:28:14;4.70;;;3.40;;
69172;SDS011;56280;49.662;8.408;2023-04-23T07:30:39;4.43;;;3.00;;
69172;SDS011;56280;49.662;8.408;2023-04-23T07:33:04;4.90;;;3.13;;
69172;SDS011;56280;49.662;8.408;2023-04-23T07:35:30;4.93;;;3.33;;
69172;SDS011;56280;49.662;8.408;2023-04-23T07:37:55;5.03;;;3.40;;
69172;SDS011;56280;49.662;8.408;2023-04-23T07:40:22;4.72;;;3.05;;
69172;SDS011;56280;49.662;8.408;2023-04-23T07:42:47;5.20;;;3.53;;
69172;SDS011;56280;49.662;8.408;2023-04-23T07:45:14;6.03;;;3.22;;
69172;SDS011;56280;49.662;8.408;2023-04-23T07:47:40;4.50;;;3.20;;
69172;SDS011;56280;49.662;8.408;2023-04-23T07:50:05;5.47;;;3.40;;
69172;SDS011;56280;49.662;8.408;2023-04-23T07:52:31;4.70;;;3.03;;
69172;SDS011;56280;49.662;8.408;2023-04-23T07:54:56;4.80;;;2.90;;
69172;SDS011;56280;49.662;8.408;2023-04-23T07:57:22;4.00;;;2.80;;
69172;SDS011;56280;49.662;8.408;2023-04-23T07:59:47;4.77;;;3.23;;
69172;SDS011;56280;49.662;8.408;2023-04-23T08:02:12;5.20;;;3.30;;
69172;SDS011;56280;49.662;8.408;2023-04-23T08:04:38;5.47;;;3.23;;
69172;SDS011;56280;49.662;8.408;2023-04-23T08:07:03;5.10;;;3.50;;
69172;SDS011;56280;49.662;8.408;2023-04-23T08:09:28;5.23;;;3.60;;
69172;SDS011;56280;49.662;8.408;2023-04-23T08:11:53;5.20;;;3.73;;
69172;SDS011;56280;49.662;8.408;2023-04-23T08:14:19;6.00;;;3.63;;
69172;SDS011;56280;49.662;8.408;2023-04-23T08:16:44;5.57;;;3.47;;
69172;SDS011;56280;49.662;8.408;2023-04-23T08:19:10;5.80;;;3.20;;
69172;SDS011;56280;49.662;8.408;2023-04-23T08:21:36;6.07;;;3.50;;
69172;SDS011;56280;49.662;8.408;2023-04-23T08:24:04;5.55;;;3.17;;
69172;SDS011;56280;49.662;8.408;2023-04-23T08:26:33;4.60;;;3.03;;
69172;SDS011;56280;49.662;8.408;2023-04-23T08:28:58;5.77;;;3.50;;
69172;SDS011;56280;49.662;8.408;2023-04-23T08:31:27;5.10;;;3.40;;
69172;SDS011;56280;49.662;8.408;2023-04-23T08:33:52;5.00;;;3.20;;
69172;SDS011;56280;49.662;8.408;2023-04-23T08:36:18;5.25;;;3.10;;
69172;SDS011;56280;49.662;8.408;2023-04-23T08:38:43;4.90;;;3.40;;
69172;SDS011;56280;49.662;8.408;2023-04-23T08:41:09;6.53;;;3.90;;
69172;SDS011;56280;49.662;8.408;2023-04-23T08:43:38;5.68;;;3.95;;
69172;SDS011;56280;49.662;8.408;2023-04-23T08:46:09;5.57;;;3.70;;
69172;SDS011;56280;49.662;8.408;2023-04-23T08:48:36;5.50;;;4.20;;
69172;SDS011;56280;49.662;8.408;2023-04-23T08:51:04;6.25;;;3.60;;
69172;SDS011;56280;49.662;8.408;2023-04-23T08:53:32;5.00;;;3.80;;
69172;SDS011;56280;49.662;8.408;2023-04-23T08:55:58;5.67;;;4.03;;
69172;SDS011;56280;49.662;8.408;2023-04-23T08:58:23;5.37;;;3.70;;
69172;SDS011;56280;49.662;8.408;2023-04-23T09:00:51;5.80;;;3.42;;
69172;SDS011;56280;49.662;8.408;2023-04-23T09:03:17;5.72;;;3.40;;
69172;SDS011;56280;49.662;8.408;2023-04-23T09:05:44;6.30;;;4.00;;
69172;SDS011;56280;49.662;8.408;2023-04-23T09:08:10;5.30;;;3.55;;
69172;SDS011;56280;49.662;8.408;2023-04-23T09:10:36;5.87;;;3.60;;
69172;SDS011;56280;49.662;8.408;2023-04-23T09:13:07;5.63;;;3.63;;
69172;SDS011;56280;49.662;8.408;2023-04-23T09:15:33;4.83;;;3.17;;
69172;SDS011;56280;49.662;8.408;2023-04-23T09:18:07;6.32;;;3.90;;
69172;SDS011;56280;49.662;8.408;2023-04-23T09:20:32;5.00;;;3.20;;
69172;SDS011;56280;49.662;8.408;2023-04-23T09:22:57;4.70;;;3.10;;
69172;SDS011;56280;49.662;8.408;2023-04-23T09:25:23;5.00;;;3.27;;
69172;SDS011;56280;49.662;8.408;2023-04-23T09:27:49;5.72;;;3.40;;
69172;SDS011;56280;49.662;8.408;2023-04-23T09:30:16;4.70;;;3.20;;
69172;SDS011;56280;49.662;8.408;2023-04-23T09:32:43;5.35;;;3.47;;
69172;SDS011;56280;49.662;8.408;2023-04-23T09:35:13;5.07;;;3.05;;
69172;SDS011;56280;49.662;8.408;2023-04-23T09:37:40;5.47;;;3.40;;
69172;SDS011;56280;49.662;8.408;2023-04-23T09:40:07;6.40;;;3.33;;
69172;SDS011;56280;49.662;8.408;2023-04-23T09:42:33;5.63;;;3.10;;
69172;SDS011;56280;49.662;8.408;2023-04-23T09:45:01;5.97;;;3.40;;
69172;SDS011;56280;49.662;8.408;2023-04-23T09:47:38;5.05;;;2.88;;
69172;SDS011;56280;49.662;8.408;2023-04-23T09:50:05;4.78;;;3.40;;
69172;SDS011;56280;49.662;8.408;2023-04-23T09:52:37;6.00;;;3.55;;
69172;SDS011;56280;49.662;8.408;2023-04-23T09:55:02;5.03;;;3.15;;
69172;SDS011;56280;49.662;8.408;2023-04-23T09:57:35;5.50;;;3.40;;
69172;SDS011;56280;49.662;8.408;2023-04-23T10:00:13;4.40;;;3.10;;
69172;SDS011;56280;49.662;8.408;2023-04-23T10:02:44;5.72;;;2.97;;
69172;SDS011;56280;49.662;8.408;2023-04-23T10:05:20;5.13;;;3.00;;
69172;SDS011;56280;49.662;8.408;2023-04-23T10:07:47;5.55;;;2.97;;
69172;SDS011;56280;49.662;8.408;2023-04-23T10:10:13;4.90;;;2.80;;
69172;SDS011;56280;49.662;8.408;2023-04-23T10:12:39;4.80;;;2.97;;
69172;SDS011;56280;49.662;8.408;2023-04-23T10:15:06;4.90;;;3.10;;
69172;SDS011;56280;49.662;8.408;2023-04-23T10:17:36;4.50;;;2.72;;
69172;SDS011;56280;49.662;8.408;2023-04-23T10:20:03;5.83;;;3.40;;
69172;SDS011;56280;49.662;8.408;2023-04-23T10:22:31;5.45;;;2.97;;
69172;SDS011;56280;49.662;8.408;2023-04-23T10:24:57;4.57;;;2.80;;
69172;SDS011;56280;49.662;8.408;2023-04-23T10:27:27;4.97;;;2.75;;
69172;SDS011;56280;49.662;8.408;2023-04-23T10:29:54;5.70;;;3.08;;
69172;SDS011;56280;49.662;8.408;2023-04-23T10:32:21;5.93;;;2.83;;
69172;SDS011;56280;49.662;8.408;2023-04-23T10:34:47;4.90;;;2.75;;
69172;SDS011;56280;49.662;8.408;2023-04-23T10:37:13;4.83;;;2.70;;
69172;SDS011;56280;49.662;8.408;2023-04-23T10:39:39;4.43;;;2.60;;
69172;SDS011;56280;49.662;8.408;2023-04-23T10:42:08;4.57;;;2.70;;
69172;SDS011;56280;49.662;8.408;2023-04-23T10:44:38;5.20;;;2.92;;
69172;SDS011;56280;49.662;8.408;2023-04-23T10:47:09;5.85;;;2.83;;
69172;SDS011;56280;49.662;8.408;2023-04-23T10:49:36;4.20;;;2.60;;
69172;SDS011;56280;49.662;8.408;2023-04-23T10:54:32;4.20;;;2.60;;
69172;SDS011;56280;49.662;8.408;2023-04-23T10:57:05;4.60;;;2.40;;
69172;SDS011;56280;49.662;8.408;2023-04-23T10:59:31;5.03;;;2.50;;
69172;SDS011;56280;49.662;8.408;2023-04-23T11:02:05;4.20;;;2.33;;
69172;SDS011;56280;49.662;8.408;2023-04-23T11:04:32;4.90;;;2.40;;
69172;SDS011;56280;49.662;8.408;2023-04-23T11:07:05;5.28;;;2.83;;
69172;SDS011;56280;49.662;8.408;2023-04-23T11:12:00;5.00;;;2.60;;
69172;SDS011;56280;49.662;8.408;2023-04-23T11:14:46;3.78;;;2.40;;
69172;SDS011;56280;49.662;8.408;2023-04-23T11:17:15;4.40;;;2.58;;
69172;SDS011;56280;49.662;8.408;2023-04-23T11:20:06;4.50;;;2.57;;
69172;SDS011;56280;49.662;8.408;2023-04-23T11:22:44;4.33;;;2.67;;
69172;SDS011;56280;49.662;8.408;2023-04-23T11:25:22;4.75;;;2.20;;
69172;SDS011;56280;49.662;8.408;2023-04-23T11:27:52;5.17;;;2.47;;
69172;SDS011;56280;49.662;8.408;2023-04-23T11:30:20;3.85;;;2.20;;
69172;SDS011;56280;49.662;8.408;2023-04-23T11:32:50;3.60;;;2.10;;
69172;SDS011;56280;49.662;8.408;2023-04-23T11:35:19;3.38;;;2.00;;
69172;SDS011;56280;49.662;8.408;2023-04-23T11:37:45;4.00;;;1.85;;
69172;SDS011;56280;49.662;8.408;2023-04-23T11:40:15;4.07;;;2.00;;
69172;SDS011;56280;49.662;8.408;2023-04-23T11:42:45;3.83;;;1.92;;
69172;SDS011;56280;49.662;8.408;2023-04-23T11:45:19;4.10;;;2.23;;
69172;SDS011;56280;49.662;8.408;2023-04-23T11:47:46;4.90;;;2.28;;
69172;SDS011;56280;49.662;8.408;2023-04-23T11:50:18;3.95;;;2.28;;
69172;SDS011;56280;49.662;8.408;2023-04-23T11:52:44;3.85;;;2.28;;
69172;SDS011;56280;49.662;8.408;2023-04-23T11:55:09;4.47;;;2.27;;
69172;SDS011;56280;49.662;8.408;2023-04-23T11:57:35;4.27;;;2.17;;
69172;SDS011;56280;49.662;8.408;2023-04-23T12:00:17;3.83;;;2.00;;
69172;SDS011;56280;49.662;8.408;2023-04-23T12:02:53;3.70;;;1.95;;
69172;SDS011;56280;49.662;8.408;2023-04-23T12:05:27;4.10;;;1.90;;
69172;SDS011;56280;49.662;8.408;2023-04-23T12:07:53;3.92;;;2.13;;
69172;SDS011;56280;49.662;8.408;2023-04-23T12:10:30;4.33;;;2.00;;
69172;SDS011;56280;49.662;8.408;2023-04-23T12:12:55;3.70;;;1.90;;
69172;SDS011;56280;49.662;8.408;2023-04-23T12:15:22;4.30;;;1.90;;
69172;SDS011;56280;49.662;8.408;2023-04-23T12:17:48;4.63;;;2.23;;
69172;SDS011;56280;49.662;8.408;2023-04-23T12:20:15;3.60;;;2.00;;
69172;SDS011;56280;49.662;8.408;2023-04-23T12:22:42;5.23;;;2.50;;
69172;SDS011;56280;49.662;8.408;2023-04-23T12:25:08;3.67;;;1.93;;
69172;SDS011;56280;49.662;8.408;2023-04-23T12:27:37;3.67;;;1.90;;
69172;SDS011;56280;49.662;8.408;2023-04-23T12:30:04;4.20;;;1.90;;
69172;SDS011;56280;49.662;8.408;2023-04-23T12:32:32;4.28;;;1.92;;
69172;SDS011;56280;49.662;8.408;2023-04-23T12:34:58;4.05;;;2.10;;
69172;SDS011;56280;49.662;8.408;2023-04-23T12:37:24;4.10;;;1.80;;
69172;SDS011;56280;49.662;8.408;2023-04-23T12:39:50;3.65;;;2.00;;
69172;SDS011;56280;49.662;8.408;2023-04-23T12:42:17;4.32;;;1.90;;
69172;SDS011;56280;49.662;8.408;2023-04-23T12:44:43;3.87;;;2.40;;
69172;SDS011;56280;49.662;8.408;2023-04-23T12:47:09;4.37;;;2.37;;
69172;SDS011;56280;49.662;8.408;2023-04-23T12:49:35;3.90;;;2.50;;
69172;SDS011;56280;49.662;8.408;2023-04-23T12:52:02;3.80;;;2.30;;
69172;SDS011;56280;49.662;8.408;2023-04-23T12:54:29;3.75;;;2.20;;
69172;SDS011;56280;49.662;8.408;2023-04-23T12:57:01;6.53;;;2.20;;
69172;SDS011;56280;49.662;8.408;2023-04-23T12:59:27;7.15;;;2.30;;
69172;SDS011;56280;49.662;8.408;2023-04-23T13:01:53;4.03;;;2.23;;
69172;SDS011;56280;49.662;8.408;2023-04-23T13:04:18;5.18;;;2.38;;
69172;SDS011;56280;49.662;8.408;2023-04-23T13:06:44;4.90;;;2.42;;
69172;SDS011;56280;49.662;8.408;2023-04-23T13:09:10;4.20;;;2.25;;
69172;SDS011;56280;49.662;8.408;2023-04-23T13:11:36;4.38;;;2.20;;
69172;SDS011;56280;49.662;8.408;2023-04-23T13:14:02;4.63;;;2.30;;
69172;SDS011;56280;49.662;8.408;2023-04-23T13:16:28;4.72;;;2.00;;
69172;SDS011;56280;49.662;8.408;2023-04-23T13:18:54;4.20;;;1.90;;
69172;SDS011;56280;49.662;8.408;2023-04-23T13:21:19;4.23;;;1.90;;
69172;SDS011;56280;49.662;8.408;2023-04-23T13:23:45;4.70;;;2.10;;
69172;SDS011;56280;49.662;8.408;2023-04-23T13:26:10;3.75;;;1.70;;
69172;SDS011;56280;49.662;8.408;2023-04-23T13:28:36;3.60;;;1.70;;
69172;SDS011;56280;49.662;8.408;2023-04-23T13:31:01;3.90;;;1.77;;
69172;SDS011;56280;49.662;8.408;2023-04-23T13:33:27;3.72;;;1.75;;
69172;SDS011;56280;49.662;8.408;2023-04-23T13:35:53;3.13;;;1.50;;
69172;SDS011;56280;49.662;8.408;2023-04-23T13:38:21;4.32;;;2.00;;
69172;SDS011;56280;49.662;8.408;2023-04-23T13:40:46;3.63;;;1.60;;
69172;SDS011;56280;49.662;8.408;2023-04-23T13:43:12;3.13;;;1.70;;
69172;SDS011;56280;49.662;8.408;2023-04-23T13:45:37;3.30;;;1.60;;
69172;SDS011;56280;49.662;8.408;2023-04-23T13:48:02;3.30;;;1.50;;
69172;SDS011;56280;49.662;8.408;2023-04-23T13:50:29;3.47;;;1.63;;
69172;SDS011;56280;49.662;8.408;2023-04-23T13:52:54;3.70;;;1.30;;
69172;SDS011;56280;49.662;8.408;2023-04-23T13:55:20;3.38;;;1.50;;
69172;SDS011;56280;49.662;8.408;2023-04-23T13:57:45;3.20;;;1.50;;
69172;SDS011;56280;49.662;8.408;2023-04-23T14:00:10;4.70;;;1.50;;
69172;SDS011;56280;49.662;8.408;2023-04-23T14:02:36;3.80;;;1.50;;
69172;SDS011;56280;49.662;8.408;2023-04-23T14:05:02;3.70;;;1.38;;
69172;SDS011;56280;49.662;8.408;2023-04-23T14:07:29;4.13;;;1.35;;
69172;SDS011;56280;49.662;8.408;2023-04-23T14:09:54;6.43;;;1.40;;
69172;SDS011;56280;49.662;8.408;2023-04-23T14:12:20;3.47;;;1.50;;
69172;SDS011;56280;49.662;8.408;2023-04-23T14:14:45;3.97;;;1.43;;
69172;SDS011;56280;49.662;8.408;2023-04-23T14:17:12;3.65;;;1.35;;
69172;SDS011;56280;49.662;8.408;2023-04-23T14:19:37;3.27;;;1.20;;
69172;SDS011;56280;49.662;8.408;2023-04-23T14:22:02;3.40;;;1.20;;
69172;SDS011;56280;49.662;8.408;2023-04-23T14:24:32;3.35;;;1.50;;
69172;SDS011;56280;49.662;8.408;2023-04-23T14:26:59;2.85;;;1.35;;
69172;SDS011;56280;49.662;8.408;2023-04-23T14:29:39;3.30;;;1.20;;
69172;SDS011;56280;49.662;8.408;2023-04-23T14:32:05;3.25;;;1.25;;
69172;SDS011;56280;49.662;8.408;2023-04-23T14:34:31;3.10;;;1.40;;
69172;SDS011;56280;49.662;8.408;2023-04-23T14:36:59;3.17;;;1.40;;
69172;SDS011;56280;49.662;8.408;2023-04-23T14:39:25;2.78;;;1.20;;
69172;SDS011;56280;49.662;8.408;2023-04-23T14:41:50;3.03;;;1.30;;
69172;SDS011;56280;49.662;8.408;2023-04-23T14:44:16;5.03;;;1.30;;
69172;SDS011;56280;49.662;8.408;2023-04-23T14:46:41;3.73;;;1.23;;
69172;SDS011;56280;49.662;8.408;2023-04-23T14:49:06;3.23;;;1.10;;
69172;SDS011;56280;49.662;8.408;2023-04-23T14:51:32;3.40;;;1.30;;